Aérodrome :
LOGIN :

S'inscrire | Disclaimer

   EN    FR    IT 

 










Légende :    VFR   VFR Marginal   IFR   IFR Intensif   IFR Très Intensif
Visi : 
Plafond : 
>= 8 km
>= 3000ft
5 à 8 km
1000 à 3000 ft
1500m à 5 km
500 à 1000 ft
800 à 1500m
200 à 500 ft
< 800m
< 200 ft
Symboles :   Orages  Brouillard  Fortes neiges  Fortes précipitations  Vent > 20 kt
SIGMETs :   Divers  Orages  Givrage  Turbulence  Onde Orograph.  Cendres Volcan.






- Altitude de l'aérodrome : 144 ft
- Code IATA : PGF


LFMP - Perpignan

DERNIER METAR :
  • 152000Z AUTO VRB02KT 9000 NSC 12/10 Q1011 TEMPO BKN010

METARs EXPIRÉS :
  • 151930Z AUTO 04002KT 8000 FEW015 BKN030 BKN240 12/10 Q1011 TEMPO BKN010
  • 151900Z AUTO 03002KT 9999 FEW014 BKN030 12/10 Q1011 TEMPO BKN010
  • 151830Z AUTO VRB03KT 9999 SCT020 OVC029 12/10 Q1011 TEMPO BKN010
  • 151800Z AUTO 00000KT 9999 BKN019 OVC027 13/11 Q1011 TEMPO BKN010
  • 151730Z AUTO 00000KT 9999 FEW021 OVC029 12/10 Q1011 TEMPO BKN010

TAF TAF LFMP
Valide du 15 à 15h jusqu'au 16 à 15h UTC


151400Z 1515/1615 VRB05KT CAVOK
TEMPO 1515/1605 BKN010
PROB30
TEMPO 1602/1605 0600 FG VV///
BECMG 1605/1608 14015KT
TEMPO 1608/1615 14020G30KT
ATIS : +33 4 68 63 75 12



MET'MAP, la Météo Aéronautique d'un coup d'oeil ! - Copyright ORBIFLY Décembre 2007 - Disclaimer

ORBIFLY MET'MAP TEAM :

Programmation & Développement : Alexandra Zaïnal
Sur une idée originale de : Baudouin d'Aumeries
Assistance à la programmation : Marc-Olivier Méhu
Soutien technique & logistique : Manuel Goepfert

Contact : metmap@orbifly.com




SOURCES & CREDITS :

   NOAA